Time;durP1;ratioP1;P1;durP2;ratioP2;P2;SDS_P1;SDS_P2;PMS_P1;PMS_P2;Temp;Humidity;BMP_temperature;BMP_pressure;BME280_temperature;BME280_humidity;BME280_pressure;Samples;Min_cycle;Max_cycle;Signal;HPM_P1;HPM_P2
2022/08/04 00:01:03;;;;;;;15.13;4.80;;;20.30;99.90;;;;;;5022713;28;20038;-69
2022/08/04 00:03:38;;;;;;;9.77;3.13;;;20.30;99.90;;;;;;5023318;28;20025;-72
2022/08/04 00:06:05;;;;;;;16.30;3.45;;;20.30;99.90;;;;;;5023827;28;20052;-70
2022/08/04 00:08:36;;;;;;;16.63;4.35;;;20.30;99.90;;;;;;5023460;28;20056;-70
2022/08/04 00:11:03;;;;;;;14.35;3.28;;;20.30;99.90;;;;;;5022916;28;20073;-70
2022/08/04 00:13:36;;;;;;;8.63;3.38;;;20.20;99.90;;;;;;5023776;28;20041;-70
2022/08/04 00:16:08;;;;;;;10.68;4.03;;;20.20;99.90;;;;;;5023990;28;20403;-71
2022/08/04 00:18:40;;;;;;;11.68;4.70;;;20.20;99.90;;;;;;5022598;28;20050;-71
2022/08/04 00:21:09;;;;;;;7.75;3.25;;;20.10;99.90;;;;;;5023487;28;20168;-72
2022/08/04 00:23:37;;;;;;;12.60;3.45;;;20.20;99.90;;;;;;5021991;28;20567;-69
2022/08/04 00:26:02;;;;;;;7.35;3.30;;;20.20;99.90;;;;;;5023880;28;20081;-70
2022/08/04 00:28:28;;;;;;;13.88;4.25;;;20.10;99.90;;;;;;5024619;28;20076;-70
2022/08/04 00:30:54;;;;;;;14.25;3.67;;;20.00;99.90;;;;;;5026987;28;20053;-70
2022/08/04 00:33:20;;;;;;;10.52;3.58;;;20.00;99.90;;;;;;5025556;28;20041;-70
2022/08/04 00:35:49;;;;;;;6.18;3.22;;;20.00;99.90;;;;;;5027315;28;20049;-70
2022/08/04 00:38:18;;;;;;;11.48;3.40;;;20.10;99.90;;;;;;5026477;28;20488;-70
2022/08/04 00:41:04;;;;;;;5.53;2.90;;;20.10;99.90;;;;;;5027718;28;20050;-70
2022/08/04 00:43:46;;;;;;;11.05;3.30;;;20.00;99.90;;;;;;5023253;28;20457;-70
2022/08/04 00:46:49;;;;;;;12.40;3.72;;;19.90;99.90;;;;;;5027731;28;20111;-70
2022/08/04 00:49:39;;;;;;;9.95;3.40;;;19.90;99.90;;;;;;5024309;28;20171;-70
2022/08/04 00:52:23;;;;;;;;;;;20.00;99.90;;;;;;5027124;28;20053;-69
2022/08/04 00:54:54;;;;;;;9.93;3.33;;;20.00;99.90;;;;;;5024624;28;19921;-71
2022/08/04 00:57:35;;;;;;;11.40;4.15;;;19.80;99.90;;;;;;5041794;28;20057;-69
2022/08/04 01:00:11;;;;;;;7.80;3.22;;;20.00;99.90;;;;;;5037733;28;20061;-70
2022/08/04 01:02:50;;;;;;;9.90;3.85;;;19.90;99.90;;;;;;5018388;28;20041;-70
2022/08/04 01:05:41;;;;;;;11.00;3.78;;;19.90;99.90;;;;;;5025870;28;20064;-70
2022/08/04 01:08:44;;;;;;;10.85;3.40;;;19.90;99.90;;;;;;5024490;28;20045;-72
2022/08/04 01:11:18;;;;;;;16.15;6.38;;;19.90;99.90;;;;;;5007543;28;20444;-70
2022/08/04 01:14:08;;;;;;;5.80;3.30;;;19.90;99.90;;;;;;5018540;28;20029;-70
2022/08/04 01:16:37;;;;;;;11.25;3.58;;;19.90;99.90;;;;;;5026371;28;20046;-70
2022/08/04 01:19:16;;;;;;;10.25;4.10;;;19.90;99.90;;;;;;5024089;28;20499;-70
2022/08/04 01:22:00;;;;;;;7.35;3.70;;;19.90;99.90;;;;;;5025110;28;20676;-70
2022/08/04 01:24:41;;;;;;;17.77;5.10;;;19.80;99.90;;;;;;5039131;28;20531;-70
2022/08/04 01:27:48;;;;;;;13.80;4.70;;;19.80;99.90;;;;;;5024739;28;20100;-70
2022/08/04 01:30:14;;;;;;;8.82;5.20;;;19.80;99.90;;;;;;5024773;28;20041;-70
2022/08/04 01:32:45;;;;;;;15.13;4.10;;;19.90;99.90;;;;;;5021893;28;20136;-71
2022/08/04 01:35:34;;;;;;;14.82;4.13;;;19.80;99.90;;;;;;5025376;28;20041;-70
2022/08/04 01:38:06;;;;;;;10.35;3.92;;;19.80;99.90;;;;;;5022828;28;20041;-70
2022/08/04 01:40:34;;;;;;;13.98;5.28;;;19.70;99.90;;;;;;5026082;28;20124;-70
2022/08/04 01:43:02;;;;;;;13.13;3.90;;;19.80;99.90;;;;;;5023861;28;20084;-70
2022/08/04 01:45:29;;;;;;;9.30;4.35;;;19.90;99.90;;;;;;5025314;28;20037;-70
2022/08/04 01:47:56;;;;;;;12.40;3.95;;;19.90;99.90;;;;;;5023977;28;20053;-71
2022/08/04 01:50:25;;;;;;;8.32;4.47;;;20.00;99.90;;;;;;5024114;28;20636;-70
2022/08/04 01:52:53;;;;;;;8.07;4.50;;;20.00;99.90;;;;;;5023818;28;20195;-71
2022/08/04 01:55:19;;;;;;;11.25;4.03;;;20.00;99.90;;;;;;5026726;28;20034;-73
2022/08/04 01:57:50;;;;;;;15.27;5.43;;;19.90;99.90;;;;;;5027136;28;20049;-71
2022/08/04 02:00:20;;;;;;;12.73;4.28;;;20.00;99.90;;;;;;5022545;28;20120;-71
2022/08/04 02:02:46;;;;;;;9.27;4.25;;;20.00;99.90;;;;;;5023043;28;20427;-71
2022/08/04 02:05:15;;;;;;;12.23;5.05;;;20.00;99.90;;;;;;5022951;28;20051;-70
2022/08/04 02:08:00;;;;;;;8.23;4.20;;;20.00;99.90;;;;;;5023906;28;20049;-71
2022/08/04 02:10:41;;;;;;;15.77;5.80;;;20.00;99.90;;;;;;5024199;28;20064;-71
2022/08/04 02:13:32;;;;;;;11.23;4.88;;;20.00;99.90;;;;;;5019228;28;20052;-71
2022/08/04 02:16:03;;;;;;;9.43;3.70;;;19.90;99.90;;;;;;5024159;28;20450;-71
2022/08/04 02:18:48;;;;;;;11.10;3.50;;;19.90;99.90;;;;;;5022659;28;20029;-71
2022/08/04 02:21:18;;;;;;;17.98;4.25;;;19.90;99.90;;;;;;5038822;28;20128;-70
2022/08/04 02:23:48;;;;;;;10.38;3.92;;;20.00;99.90;;;;;;5024067;28;20136;-71
2022/08/04 02:26:19;;;;;;;5.32;3.65;;;19.90;99.90;;;;;;5022977;28;20051;-69
2022/08/04 02:29:03;;;;;;;9.05;3.50;;;20.00;99.90;;;;;;5007470;28;20586;-70
2022/08/04 02:31:40;;;;;;;11.63;3.80;;;20.00;99.90;;;;;;5016515;28;20519;-70
2022/08/04 02:34:15;;;;;;;20.52;4.70;;;19.90;99.90;;;;;;5018897;28;20045;-70
2022/08/04 02:36:42;;;;;;;10.57;4.18;;;19.80;99.90;;;;;;5037978;28;20404;-69
2022/08/04 02:39:09;;;;;;;16.58;5.32;;;19.80;99.90;;;;;;5023289;28;20041;-70
2022/08/04 02:41:36;;;;;;;12.30;4.85;;;19.80;99.90;;;;;;5007562;28;20172;-71
2022/08/04 02:44:09;;;;;;;8.75;4.05;;;19.90;99.90;;;;;;5022515;28;20060;-71
2022/08/04 02:46:37;;;;;;;8.05;4.18;;;19.90;99.90;;;;;;5022734;28;20072;-71
2022/08/04 02:49:08;;;;;;;10.30;4.05;;;19.90;99.90;;;;;;5018514;28;20041;-71
2022/08/04 02:51:40;;;;;;;10.90;4.20;;;20.00;99.90;;;;;;5022759;28;20048;-71
2022/08/04 02:54:06;;;;;;;11.63;4.88;;;19.80;99.90;;;;;;5021740;28;20069;-71
2022/08/04 02:56:34;;;;;;;10.63;3.55;;;19.90;99.90;;;;;;5024562;28;20037;-71
2022/08/04 02:59:03;;;;;;;9.65;5.00;;;19.90;99.90;;;;;;5023357;28;20045;-70
2022/08/04 03:01:30;;;;;;;10.53;4.17;;;19.80;99.90;;;;;;5024567;28;20059;-69
2022/08/04 03:04:01;;;;;;;13.32;5.20;;;19.80;99.90;;;;;;5023365;28;20048;-70
2022/08/04 03:06:42;;;;;;;11.68;4.72;;;19.80;99.90;;;;;;5023711;28;20041;-70
2022/08/04 03:09:44;;;;;;;11.70;6.25;;;19.90;99.90;;;;;;5019298;28;20111;-70
2022/08/04 03:12:19;;;;;;;13.38;4.35;;;19.90;99.90;;;;;;5024838;28;20048;-70
2022/08/04 03:15:20;;;;;;;10.02;4.72;;;19.90;99.90;;;;;;5021840;28;20431;-70
2022/08/04 03:18:13;;;;;;;7.55;4.35;;;19.90;99.90;;;;;;5020155;28;20041;-70
2022/08/04 03:20:47;;;;;;;10.18;4.82;;;19.80;99.90;;;;;;5024370;28;20508;-70
2022/08/04 03:23:27;;;;;;;7.32;3.80;;;19.80;99.90;;;;;;5022868;28;20063;-70
2022/08/04 03:26:31;;;;;;;9.90;4.43;;;19.80;99.90;;;;;;5038038;28;20041;-70
2022/08/04 03:29:30;;;;;;;16.10;4.72;;;19.60;99.90;;;;;;5007263;28;20392;-69
2022/08/04 03:32:19;;;;;;;11.55;5.00;;;19.80;99.90;;;;;;5020108;28;20899;-69
2022/08/04 03:34:51;;;;;;;16.40;5.40;;;19.80;99.90;;;;;;5022579;28;20408;-70
2022/08/04 03:37:31;;;;;;;17.00;5.18;;;19.70;99.90;;;;;;5040711;28;20057;-70
2022/08/04 03:40:22;;;;;;;15.20;5.18;;;19.80;99.90;;;;;;5021913;28;20179;-69
2022/08/04 03:42:53;;;;;;;11.77;5.70;;;19.70;99.90;;;;;;5021500;28;20034;-70
2022/08/04 03:45:37;;;;;;;10.60;5.20;;;19.70;99.90;;;;;;5007481;28;20045;-70
2022/08/04 03:48:12;;;;;;;11.98;5.30;;;19.80;99.90;;;;;;5021611;28;20045;-70
2022/08/04 03:54:20;;;;;;;17.85;7.45;;;19.80;99.90;;;;;;5023415;28;20422;-69
2022/08/04 03:56:55;;;;;;;;;;;19.80;99.90;;;;;;5025687;28;20175;-70
2022/08/04 03:59:53;;;;;;;8.43;5.18;;;19.70;99.90;;;;;;5023087;28;19921;-70
2022/08/04 04:03:00;;;;;;;11.65;6.25;;;19.60;99.90;;;;;;5025662;28;20052;-70
2022/08/04 04:05:59;;;;;;;14.18;6.03;;;19.70;99.90;;;;;;5028591;28;20046;-70
2022/08/04 04:08:49;;;;;;;11.45;5.40;;;19.60;99.90;;;;;;5025535;28;20072;-70
2022/08/04 04:11:33;;;;;;;9.85;5.90;;;19.60;99.90;;;;;;5022099;28;20052;-70
2022/08/04 04:14:36;;;;;;;10.25;5.00;;;19.40;99.90;;;;;;5042287;28;20132;-70
2022/08/04 04:17:45;;;;;;;12.95;6.47;;;19.40;99.90;;;;;;5027394;28;20487;-70
2022/08/04 04:20:20;;;;;;;18.77;5.75;;;19.60;99.90;;;;;;5042267;28;20151;-70
2022/08/04 04:22:57;;;;;;;11.93;5.78;;;19.50;99.90;;;;;;5024308;28;20049;-70
2022/08/04 04:25:43;;;;;;;8.88;4.93;;;19.70;99.90;;;;;;5024163;28;20092;-70
2022/08/04 04:28:21;;;;;;;10.10;6.15;;;19.70;99.90;;;;;;5009331;28;20377;-70
2022/08/04 04:31:02;;;;;;;14.38;7.10;;;19.50;99.90;;;;;;5042795;28;20068;-70
2022/08/04 04:33:52;;;;;;;18.90;7.18;;;19.40;99.90;;;;;;5022998;28;20085;-70
2022/08/04 04:36:49;;;;;;;10.20;5.53;;;19.40;99.90;;;;;;5012895;28;20045;-70
2022/08/04 04:39:29;;;;;;;11.55;6.68;;;19.30;99.90;;;;;;5025998;28;20049;-70
2022/08/04 04:42:07;;;;;;;14.35;6.63;;;19.50;99.90;;;;;;5026767;28;20044;-70
2022/08/04 04:44:50;;;;;;;10.48;5.97;;;19.60;99.90;;;;;;5027592;28;20076;-70
2022/08/04 04:47:56;;;;;;;14.38;7.72;;;19.50;99.90;;;;;;5026531;28;20045;-70
2022/08/04 04:50:50;;;;;;;10.93;6.72;;;19.50;99.90;;;;;;5026892;28;20057;-70
2022/08/04 04:54:01;;;;;;;9.65;5.60;;;19.70;99.90;;;;;;5037645;28;20057;-70
2022/08/04 04:56:44;;;;;;;11.40;5.93;;;19.60;99.90;;;;;;5024479;28;20049;-70
2022/08/04 04:59:14;;;;;;;11.10;5.57;;;19.70;99.90;;;;;;5024568;28;20073;-70
2022/08/04 05:02:17;;;;;;;11.57;6.43;;;19.70;99.90;;;;;;5024671;28;20045;-69
2022/08/04 05:05:01;;;;;;;14.73;6.90;;;19.80;99.90;;;;;;5007133;28;20083;-70
2022/08/04 05:07:57;;;;;;;13.60;6.70;;;19.90;99.90;;;;;;5021251;28;20052;-71
2022/08/04 05:10:47;;;;;;;16.80;7.57;;;19.90;99.90;;;;;;5023148;28;20081;-71
2022/08/04 05:13:16;;;;;;;;;;;20.00;99.90;;;;;;5023734;28;20045;-71
2022/08/04 05:15:45;;;;;;;14.77;6.50;;;20.00;99.90;;;;;;5024965;28;19917;-71
2022/08/04 05:18:18;;;;;;;10.70;6.45;;;20.00;99.90;;;;;;5024991;28;20076;-70
2022/08/04 05:20:50;;;;;;;11.85;7.25;;;20.10;99.90;;;;;;5025726;28;20038;-71
2022/08/04 05:23:20;;;;;;;12.57;6.00;;;20.10;99.90;;;;;;5024336;28;20336;-70
2022/08/04 05:25:52;;;;;;;11.13;5.88;;;20.20;99.90;;;;;;5023327;28;20078;-70
2022/08/04 05:28:23;;;;;;;14.18;6.30;;;20.20;99.90;;;;;;5024709;28;20056;-70
2022/08/04 05:31:15;;;;;;;11.93;6.72;;;20.30;99.90;;;;;;5023416;28;20038;-71
2022/08/04 05:33:56;;;;;;;14.60;7.40;;;20.30;99.90;;;;;;5024706;28;20400;-70
2022/08/04 05:36:32;;;;;;;14.50;7.25;;;20.30;99.90;;;;;;5027026;28;20068;-71
2022/08/04 05:38:59;;;;;;;17.17;8.30;;;20.40;99.90;;;;;;5023621;28;20045;-70
2022/08/04 05:41:27;;;;;;;16.58;6.80;;;20.50;99.90;;;;;;5025709;28;20049;-70
2022/08/04 05:43:55;;;;;;;18.42;7.22;;;20.50;99.90;;;;;;5022385;28;20034;-71
2022/08/04 05:46:21;;;;;;;12.05;6.45;;;20.60;99.90;;;;;;5035587;28;20459;-71
2022/08/04 05:48:48;;;;;;;11.52;6.63;;;20.80;99.90;;;;;;5025363;28;20049;-70
2022/08/04 05:51:15;;;;;;;14.10;6.00;;;20.80;99.90;;;;;;5023916;28;20108;-70
2022/08/04 05:53:43;;;;;;;9.70;6.25;;;21.00;99.90;;;;;;5023358;28;20048;-70
2022/08/04 05:56:13;;;;;;;13.93;6.00;;;21.10;99.90;;;;;;5024245;28;20117;-70
2022/08/04 05:58:40;;;;;;;14.50;7.40;;;21.30;99.90;;;;;;5026273;28;20053;-71
2022/08/04 06:01:09;;;;;;;9.63;6.32;;;21.30;99.90;;;;;;5025535;28;20049;-70
2022/08/04 06:03:36;;;;;;;10.88;6.55;;;21.50;99.90;;;;;;5021780;28;20140;-70
2022/08/04 06:06:03;;;;;;;9.40;6.25;;;21.70;99.90;;;;;;5023446;28;20046;-71
2022/08/04 06:08:30;;;;;;;10.15;5.97;;;21.80;99.90;;;;;;5025557;28;20041;-70
2022/08/04 06:11:00;;;;;;;14.65;6.32;;;21.90;99.90;;;;;;5025159;28;20113;-70
2022/08/04 06:13:36;;;;;;;14.27;7.25;;;22.00;99.90;;;;;;5021491;28;20060;-71
2022/08/04 06:16:05;;;;;;;9.45;5.30;;;22.30;99.90;;;;;;5023037;28;20050;-72
2022/08/04 06:18:33;;;;;;;12.32;6.47;;;22.30;99.90;;;;;;5023019;28;20041;-71
2022/08/04 06:21:03;;;;;;;10.48;5.93;;;22.40;99.90;;;;;;5021303;28;20498;-70
2022/08/04 06:23:31;;;;;;;11.45;5.25;;;22.40;99.90;;;;;;5023655;28;20073;-70
2022/08/04 06:25:59;;;;;;;10.95;5.18;;;22.40;99.90;;;;;;5021350;28;20123;-73
2022/08/04 06:28:28;;;;;;;11.30;5.05;;;22.50;99.90;;;;;;5023968;28;20064;-73
2022/08/04 06:30:57;;;;;;;12.18;7.13;;;22.50;99.90;;;;;;5023650;28;20049;-73
2022/08/04 06:33:31;;;;;;;11.88;6.60;;;22.40;99.90;;;;;;5019545;28;20052;-72
2022/08/04 06:35:59;;;;;;;11.38;6.40;;;22.40;99.90;;;;;;5023687;28;20077;-71
2022/08/04 06:38:27;;;;;;;12.10;5.68;;;22.50;99.90;;;;;;5023162;28;20041;-71
2022/08/04 06:40:56;;;;;;;12.50;5.57;;;22.60;99.90;;;;;;5040186;28;20124;-71
2022/08/04 06:43:23;;;;;;;15.65;5.30;;;22.60;99.90;;;;;;5023881;28;20053;-71
2022/08/04 06:45:49;;;;;;;16.90;6.93;;;22.70;99.90;;;;;;5024087;28;20042;-70
2022/08/04 06:48:16;;;;;;;10.85;5.45;;;22.60;99.90;;;;;;5020186;28;20030;-72
2022/08/04 06:50:46;;;;;;;10.18;6.18;;;22.70;99.90;;;;;;5022866;28;20560;-72
2022/08/04 06:53:12;;;;;;;10.13;4.22;;;22.80;99.90;;;;;;5019958;28;20092;-71
2022/08/04 06:55:41;;;;;;;8.98;4.78;;;22.80;99.90;;;;;;5015921;28;20479;-72
2022/08/04 06:58:07;;;;;;;12.57;5.78;;;22.70;99.90;;;;;;5018186;28;20037;-70
2022/08/04 07:00:34;;;;;;;11.13;5.65;;;22.70;99.90;;;;;;5020780;28;20103;-70
2022/08/04 07:03:02;;;;;;;8.38;5.57;;;22.80;99.90;;;;;;5022680;28;20059;-70
2022/08/04 07:05:28;;;;;;;9.73;5.22;;;22.70;99.90;;;;;;5024711;28;20041;-70
2022/08/04 07:07:55;;;;;;;12.60;6.43;;;22.80;99.90;;;;;;5000160;28;20580;-72
2022/08/04 07:10:22;;;;;;;8.18;5.50;;;22.70;99.90;;;;;;5039178;28;20059;-70
2022/08/04 07:12:48;;;;;;;10.10;5.93;;;23.10;99.90;;;;;;5023079;28;20049;-71
2022/08/04 07:15:17;;;;;;;10.45;6.68;;;23.60;99.90;;;;;;5022711;28;20060;-72
2022/08/04 07:17:43;;;;;;;9.95;6.97;;;24.00;99.90;;;;;;5020343;28;20049;-70
2022/08/04 07:20:09;;;;;;;19.88;9.07;;;24.60;99.90;;;;;;5020002;28;20049;-70
2022/08/04 07:22:36;;;;;;;13.68;7.20;;;24.60;99.90;;;;;;5023486;28;20041;-70
2022/08/04 07:25:07;;;;;;;10.52;7.00;;;24.50;99.90;;;;;;5020320;28;20053;-70
2022/08/04 07:27:32;;;;;;;11.30;5.63;;;24.30;99.90;;;;;;5036985;28;20049;-70
2022/08/04 07:29:58;;;;;;;12.23;7.60;;;24.40;99.90;;;;;;5017771;28;20046;-70
2022/08/04 07:32:25;;;;;;;9.32;7.00;;;24.60;99.90;;;;;;5022902;28;20041;-72
2022/08/04 07:34:51;;;;;;;9.27;5.80;;;24.70;99.90;;;;;;5022222;28;20045;-71
2022/08/04 07:37:17;;;;;;;10.73;6.05;;;25.10;99.90;;;;;;5025409;28;20865;-72
2022/08/04 07:39:43;;;;;;;12.98;6.28;;;24.80;99.90;;;;;;5025036;28;20049;-69
2022/08/04 07:42:09;;;;;;;11.88;6.50;;;24.60;99.90;;;;;;5025580;28;20490;-71
2022/08/04 07:44:36;;;;;;;23.45;6.22;;;24.60;99.90;;;;;;5028463;28;20053;-71
2022/08/04 07:47:04;;;;;;;10.73;6.05;;;24.80;99.90;;;;;;5039716;28;20098;-70
2022/08/04 07:49:30;;;;;;;12.02;6.47;;;24.70;99.90;;;;;;5031343;28;20065;-72
2022/08/04 07:51:56;;;;;;;9.77;4.90;;;24.40;99.90;;;;;;5026867;28;20112;-71
2022/08/04 07:54:23;;;;;;;11.57;4.63;;;24.50;99.90;;;;;;5027095;28;20042;-71
2022/08/04 07:56:50;;;;;;;16.30;5.47;;;24.50;99.90;;;;;;5023322;28;20520;-74
2022/08/04 07:59:19;;;;;;;9.40;4.93;;;24.70;99.90;;;;;;5041435;28;20118;-70
2022/08/04 08:01:46;;;;;;;7.30;4.20;;;24.80;99.90;;;;;;5020540;28;20044;-70
2022/08/04 08:04:13;;;;;;;12.70;5.00;;;24.70;99.90;;;;;;5025791;28;20885;-70
2022/08/04 08:06:40;;;;;;;7.82;4.15;;;24.60;99.90;;;;;;5042517;28;20049;-71
2022/08/04 08:09:14;;;;;;;10.48;4.75;;;24.50;99.90;;;;;;5027998;28;20080;-72
2022/08/04 08:11:42;;;;;;;7.10;4.30;;;24.10;99.90;;;;;;5025753;28;20050;-72
2022/08/04 08:14:08;;;;;;;15.23;5.97;;;24.20;99.90;;;;;;5041111;28;20072;-70
2022/08/04 08:16:37;;;;;;;10.43;4.03;;;24.30;99.90;;;;;;5024796;28;20216;-71
2022/08/04 08:19:04;;;;;;;14.63;5.07;;;24.20;99.90;;;;;;5022444;28;20046;-71
2022/08/04 08:21:30;;;;;;;10.55;5.28;;;24.40;99.90;;;;;;5026892;28;20312;-71
2022/08/04 08:23:56;;;;;;;11.10;5.60;;;24.60;99.90;;;;;;5023312;28;20083;-71
2022/08/04 08:26:21;;;;;;;8.15;5.35;;;24.50;99.90;;;;;;5024832;28;20033;-72
2022/08/04 08:28:47;;;;;;;9.85;4.85;;;24.50;99.90;;;;;;5023090;28;20442;-72
2022/08/04 08:31:13;;;;;;;14.30;4.80;;;24.70;99.90;;;;;;5023565;28;20504;-73
2022/08/04 08:33:39;;;;;;;14.18;4.70;;;24.90;99.90;;;;;;5022844;28;20033;-73
2022/08/04 08:36:19;;;;;;;14.45;5.03;;;25.10;99.90;;;;;;5021336;28;20156;-73
2022/08/04 08:39:09;;;;;;;9.20;3.72;;;24.80;99.90;;;;;;5025773;28;20073;-73
2022/08/04 08:42:12;;;;;;;11.45;4.25;;;24.40;99.90;;;;;;5035851;28;20057;-72
2022/08/04 08:44:58;;;;;;;10.43;3.92;;;24.80;99.90;;;;;;5027296;28;20077;-72
2022/08/04 08:47:39;;;;;;;11.27;3.03;;;24.90;99.90;;;;;;5039001;28;20087;-73
2022/08/04 08:50:27;;;;;;;7.38;3.20;;;25.00;99.90;;;;;;5026817;28;20408;-75
2022/08/04 08:53:27;;;;;;;6.13;2.88;;;24.90;99.90;;;;;;5039882;28;20057;-75
2022/08/04 08:56:17;;;;;;;5.80;1.83;;;25.10;99.90;;;;;;5023454;28;20049;-75
2022/08/04 08:59:01;;;;;;;;;;;25.40;99.90;;;;;;5035165;28;20045;-73
2022/08/04 09:01:39;;;;;;;10.23;2.80;;;25.40;99.90;;;;;;5024915;28;19921;-79
2022/08/04 09:04:20;;;;;;;5.45;2.70;;;25.60;99.90;;;;;;5023146;28;20050;-78
2022/08/04 09:06:49;;;;;;;6.03;2.55;;;25.60;99.90;;;;;;5019848;28;20494;-79
2022/08/04 09:09:36;;;;;;;8.35;2.75;;;25.70;99.90;;;;;;5024902;28;20041;-72
2022/08/04 09:12:20;;;;;;;8.90;1.90;;;25.70;99.90;;;;;;5022128;28;20136;-79
2022/08/04 09:15:06;;;;;;;5.45;2.63;;;25.80;99.90;;;;;;5042682;28;20064;-81
2022/08/04 09:17:36;;;;;;;10.20;2.67;;;26.00;99.90;;;;;;5020975;28;20529;-81
2022/08/04 09:20:21;;;;;;;7.38;2.30;;;26.10;99.90;;;;;;5010718;28;20094;-82
2022/08/04 09:23:11;;;;;;;17.08;2.65;;;26.20;99.90;;;;;;5022057;28;20095;-81
2022/08/04 09:25:48;;;;;;;;;;;26.20;99.90;;;;;;5025146;28;20072;-81
2022/08/04 09:28:23;;;;;;;8.80;2.08;;;26.30;99.90;;;;;;5027029;28;20390;-82
2022/08/04 09:31:06;;;;;;;5.38;1.63;;;26.20;99.90;;;;;;5025171;28;20033;-83
2022/08/04 09:33:53;;;;;;;10.30;1.83;;;26.30;99.90;;;;;;5032148;28;20037;-75
2022/08/04 09:36:45;;;;;;;8.35;1.50;;;26.10;99.90;;;;;;5029347;28;20076;-82
2022/08/04 09:39:18;;;;;;;7.03;2.30;;;26.10;99.90;;;;;;5029578;28;20107;-81
2022/08/04 09:42:08;;;;;;;11.80;3.33;;;26.30;99.90;;;;;;5026409;28;20042;-83
2022/08/04 09:44:57;;;;;;;9.32;2.40;;;26.40;99.90;;;;;;5031010;28;20041;-84
2022/08/04 09:47:32;;;;;;;12.35;1.85;;;25.90;99.90;;;;;;5027404;28;20124;-83
2022/08/04 09:50:01;;;;;;;9.43;2.05;;;25.80;99.90;;;;;;5027192;28;20202;-83
2022/08/04 09:52:55;;;;;;;11.55;3.33;;;25.80;99.90;;;;;;5025831;28;20052;-82
2022/08/04 09:55:46;;;;;;;9.38;2.22;;;25.60;99.90;;;;;;5031687;28;20049;-84
2022/08/04 09:58:31;;;;;;;6.45;1.98;;;25.80;99.90;;;;;;5030581;28;20044;-82
2022/08/04 10:01:02;;;;;;;10.90;2.00;;;26.00;99.90;;;;;;5031840;28;20141;-83
2022/08/04 10:03:34;;;;;;;3.92;1.65;;;26.30;99.90;;;;;;5023574;28;20072;-84
2022/08/04 10:06:31;;;;;;;6.65;1.80;;;26.60;99.90;;;;;;5025518;28;20045;-82
2022/08/04 10:09:29;;;;;;;4.00;1.60;;;26.80;99.90;;;;;;5039395;28;20064;-83
2022/08/04 10:12:26;;;;;;;5.05;1.83;;;26.90;99.90;;;;;;5023364;28;20041;-82
2022/08/04 10:15:19;;;;;;;3.35;0.93;;;26.90;99.90;;;;;;5025983;28;20042;-74
2022/08/04 10:18:10;;;;;;;8.10;2.03;;;27.10;99.90;;;;;;5024181;28;20077;-76
2022/08/04 10:21:09;;;;;;;2.67;1.10;;;27.30;99.90;;;;;;5039427;28;20045;-74
2022/08/04 10:23:47;;;;;;;4.43;1.00;;;27.00;99.90;;;;;;5023847;28;20049;-74
2022/08/04 10:26:34;;;;;;;4.93;1.20;;;27.00;99.90;;;;;;5021845;28;20045;-73
2022/08/04 10:29:13;;;;;;;2.90;1.00;;;27.30;99.90;;;;;;5023844;28;20045;-74
2022/08/04 10:31:46;;;;;;;3.33;1.17;;;27.20;99.90;;;;;;5039238;28;20242;-77
2022/08/04 10:34:28;;;;;;;2.25;1.10;;;27.30;99.90;;;;;;5025305;28;20038;-76
2022/08/04 10:37:20;;;;;;;1.92;0.93;;;27.20;99.90;;;;;;5021142;28;20439;-81
2022/08/04 10:42:46;;;;;;;29.63;2.58;;;27.30;99.90;;;;;;5020220;28;20045;-83
2022/08/04 10:45:21;;;;;;;2.47;0.55;;;27.40;99.90;;;;;;5022047;28;20037;-82
2022/08/04 10:48:07;;;;;;;3.10;0.70;;;27.30;99.90;;;;;;5032490;28;20045;-82
2022/08/04 10:50:36;;;;;;;6.68;0.95;;;27.00;99.90;;;;;;5019376;28;20132;-81
2022/08/04 10:53:10;;;;;;;1.98;0.80;;;26.80;99.90;;;;;;5034749;28;20087;-83
2022/08/04 10:55:44;;;;;;;4.15;1.20;;;26.80;99.90;;;;;;5017632;28;20045;-82
2022/08/04 10:58:15;;;;;;;3.78;1.50;;;26.60;99.90;;;;;;5017517;28;20113;-82
2022/08/04 11:00:44;;;;;;;2.80;0.82;;;26.80;99.90;;;;;;5016744;28;20046;-82
2022/08/04 11:03:22;;;;;;;4.03;1.33;;;27.00;99.90;;;;;;5017041;28;20060;-82
2022/08/04 11:05:57;;;;;;;1.90;1.20;;;26.60;99.90;;;;;;5017493;28;20049;-82
2022/08/04 11:08:34;;;;;;;3.65;1.30;;;26.60;99.90;;;;;;5034038;28;20053;-83
2022/08/04 11:11:23;;;;;;;4.43;1.40;;;26.40;99.90;;;;;;5017463;28;20038;-83
2022/08/04 11:13:59;;;;;;;8.52;1.90;;;26.40;99.90;;;;;;5036533;28;20137;-80
2022/08/04 11:16:41;;;;;;;2.17;1.38;;;26.40;99.90;;;;;;5002608;28;20041;-81
2022/08/04 11:19:32;;;;;;;5.40;1.27;;;26.30;99.90;;;;;;5018233;28;20140;-82
2022/08/04 11:22:05;;;;;;;2.97;1.00;;;26.20;99.90;;;;;;5016257;28;20053;-81
2022/08/04 11:25:02;;;;;;;4.03;1.20;;;26.30;99.90;;;;;;5024331;28;20506;-82
2022/08/04 11:28:00;;;;;;;2.83;0.98;;;26.30;99.90;;;;;;5009175;28;20095;-81
2022/08/04 11:30:55;;;;;;;2.28;1.33;;;26.30;99.90;;;;;;5005993;28;20053;-83
2022/08/04 11:33:39;;;;;;;2.15;0.82;;;26.40;99.90;;;;;;5023333;28;20041;-80
2022/08/04 11:36:42;;;;;;;4.03;0.70;;;26.20;99.90;;;;;;5005756;28;20046;-79
2022/08/04 11:39:15;;;;;;;3.47;0.60;;;26.10;99.90;;;;;;4992399;28;20194;-74
2022/08/04 11:41:51;;;;;;;2.60;0.90;;;26.10;99.90;;;;;;5018616;28;20037;-74
2022/08/04 11:44:24;;;;;;;1.88;0.70;;;26.20;99.90;;;;;;5024070;28;20068;-74
2022/08/04 11:46:53;;;;;;;4.57;0.90;;;26.30;99.90;;;;;;5021206;28;20037;-73
2022/08/04 11:49:33;;;;;;;5.07;0.63;;;25.90;99.90;;;;;;5014070;28;20488;-72
2022/08/04 11:52:00;;;;;;;9.02;2.15;;;25.80;99.90;;;;;;5035653;28;20046;-73
2022/08/04 11:54:27;;;;;;;5.57;2.47;;;25.80;99.90;;;;;;5014147;28;20045;-74
2022/08/04 11:56:53;;;;;;;0.93;0.70;;;25.70;99.90;;;;;;5021750;28;20041;-73
2022/08/04 11:59:22;;;;;;;1.70;0.90;;;25.90;99.90;;;;;;5021856;28;20041;-74
2022/08/04 12:02:10;;;;;;;4.63;0.90;;;25.70;99.90;;;;;;5018480;28;20046;-75
2022/08/04 12:04:59;;;;;;;1.15;0.70;;;25.70;99.90;;;;;;5021049;28;20049;-74
2022/08/04 12:07:47;;;;;;;1.13;0.60;;;25.70;99.90;;;;;;5022912;28;20042;-73
2022/08/04 12:10:50;;;;;;;3.67;0.90;;;25.70;99.90;;;;;;5009757;28;20772;-74
2022/08/04 12:13:21;;;;;;;4.40;1.10;;;25.60;99.90;;;;;;5004109;28;20049;-74
2022/08/04 12:16:09;;;;;;;2.17;1.02;;;25.60;99.90;;;;;;5023999;28;20053;-74
2022/08/04 12:18:41;;;;;;;1.90;0.77;;;25.70;99.90;;;;;;5021118;28;20045;-74
2022/08/04 12:21:14;;;;;;;0.70;0.70;;;25.60;99.90;;;;;;5020756;28;20052;-74
2022/08/04 12:23:42;;;;;;;2.33;0.98;;;25.50;99.90;;;;;;5024894;28;20467;-74
2022/08/04 12:26:25;;;;;;;6.32;1.05;;;25.50;99.90;;;;;;5022312;28;20096;-73
2022/08/04 12:28:58;;;;;;;2.85;1.10;;;25.60;99.90;;;;;;5027135;28;20055;-73
2022/08/04 12:31:28;;;;;;;4.18;0.73;;;25.90;99.90;;;;;;5025388;28;20029;-75
2022/08/04 12:34:26;;;;;;;5.03;1.80;;;25.70;99.90;;;;;;5018878;28;20042;-74
2022/08/04 12:37:03;;;;;;;3.60;0.80;;;26.20;99.90;;;;;;5022787;28;20096;-74
2022/08/04 12:39:30;;;;;;;2.65;1.45;;;26.30;99.90;;;;;;5024992;28;20045;-74
2022/08/04 12:42:21;;;;;;;1.92;0.88;;;26.30;99.90;;;;;;5027578;28;20056;-74
2022/08/04 12:44:52;;;;;;;1.58;0.75;;;26.30;99.90;;;;;;5028501;28;20111;-74
2022/08/04 12:47:23;;;;;;;7.38;1.73;;;26.40;99.90;;;;;;5024189;28;20067;-73
2022/08/04 12:49:49;;;;;;;5.82;1.55;;;26.40;99.90;;;;;;5027110;28;20049;-76
2022/08/04 12:52:17;;;;;;;2.50;0.70;;;26.30;99.90;;;;;;5024808;28;20064;-73
2022/08/04 12:54:47;;;;;;;2.55;1.10;;;26.40;99.90;;;;;;5027187;28;20053;-73
2022/08/04 12:57:13;;;;;;;;;;;26.80;99.90;;;;;;5026203;28;20111;-73
2022/08/04 12:59:48;;;;;;;2.97;0.63;;;27.00;99.90;;;;;;5027742;28;20277;-74
2022/08/04 13:02:25;;;;;;;1.42;0.60;;;27.00;99.90;;;;;;5022102;28;20053;-73
2022/08/04 13:04:52;;;;;;;4.53;0.80;;;26.70;99.90;;;;;;5026221;28;20156;-74
2022/08/04 13:07:23;;;;;;;1.13;0.70;;;26.80;99.90;;;;;;5026032;28;20076;-73
2022/08/04 13:09:50;;;;;;;5.82;1.95;;;26.70;99.90;;;;;;5025676;28;20123;-73
2022/08/04 13:12:28;;;;;;;1.20;0.50;;;27.00;99.90;;;;;;5026273;28;20064;-74
2022/08/04 13:15:13;;;;;;;2.90;1.02;;;27.10;99.90;;;;;;5023799;28;20045;-75
2022/08/04 13:17:54;;;;;;;2.92;0.80;;;27.00;99.90;;;;;;5021815;28;20045;-74
2022/08/04 13:20:32;;;;;;;2.83;0.98;;;27.00;99.90;;;;;;5026020;28;20076;-75
2022/08/04 13:23:10;;;;;;;2.83;0.82;;;27.10;99.90;;;;;;5025969;28;20033;-73
2022/08/04 13:25:40;;;;;;;2.85;1.08;;;26.80;99.90;;;;;;5026580;28;20044;-74
2022/08/04 13:28:18;;;;;;;3.33;0.85;;;26.80;99.90;;;;;;5024672;28;20037;-74
2022/08/04 13:30:57;;;;;;;6.70;1.75;;;26.70;99.90;;;;;;5040287;28;20049;-73
2022/08/04 13:33:29;;;;;;;2.93;0.83;;;26.90;99.90;;;;;;5023646;28;20099;-73
2022/08/04 13:35:56;;;;;;;4.70;0.77;;;27.00;99.90;;;;;;5025079;28;20115;-74
2022/08/04 13:38:24;;;;;;;4.90;1.17;;;27.10;99.90;;;;;;5025747;28;20095;-73